Time;durP1;ratioP1;P1;durP2;ratioP2;P2;SDS_P1;SDS_P2;PMS_P1;PMS_P2;Temp;Humidity;BMP_temperature;BMP_pressure;BME280_temperature;BME280_humidity;BME280_pressure;Samples;Min_cycle;Max_cycle;Signal;HPM_P1;HPM_P2
2023/04/02 00:02:26;;;;;;;14.00;4.73;;;;;;;;;;5111414;28;20208;-80
2023/04/02 00:05:09;;;;;;;12.83;4.87;;;;;;;;;;5111485;28;20319;-80
2023/04/02 00:07:39;;;;;;;8.90;4.63;;;;;;;;;;5110545;28;20197;-80
2023/04/02 00:10:25;;;;;;;14.37;4.97;;;;;;;;;;5111090;28;20295;-80
2023/04/02 00:13:03;;;;;;;11.53;4.93;;;;;;;;;;5111769;28;20627;-80
2023/04/02 00:15:31;;;;;;;11.03;5.30;;;;;;;;;;5111572;28;20236;-80
2023/04/02 00:17:58;;;;;;;13.83;6.20;;;;;;;;;;5111223;28;20326;-80
2023/04/02 00:20:26;;;;;;;11.70;5.10;;;;;;;;;;5110867;28;20248;-79
2023/04/02 00:22:55;;;;;;;10.50;5.10;;;;;;;;;;5111340;28;20668;-80
2023/04/02 00:25:22;;;;;;;11.40;5.73;;;;;;;;;;5110622;28;20679;-80
2023/04/02 00:27:50;;;;;;;12.43;5.57;;;;;;;;;;5111520;28;20644;-80
2023/04/02 00:30:17;;;;;;;11.37;5.57;;;;;;;;;;5115028;28;20262;-80
2023/04/02 00:32:44;;;;;;;11.27;5.27;;;;;;;;;;5114824;28;20232;-81
2023/04/02 00:35:13;;;;;;;10.83;5.90;;;;;;;;;;5114648;28;20295;-78
2023/04/02 00:37:41;;;;;;;11.87;5.97;;;;;;;;;;5114953;28;20295;-78
2023/04/02 00:40:15;;;;;;;11.03;5.53;;;;;;;;;;5114422;28;20198;-79
2023/04/02 00:42:45;;;;;;;15.63;6.17;;;;;;;;;;5114861;28;20200;-79
2023/04/02 00:45:19;;;;;;;11.07;5.30;;;;;;;;;;5114987;28;20282;-80
2023/04/02 00:47:46;;;;;;;13.43;5.50;;;;;;;;;;5114425;28;20239;-80
2023/04/02 00:50:20;;;;;;;10.07;5.43;;;;;;;;;;5114430;28;20283;-80
2023/04/02 00:52:49;;;;;;;15.17;7.10;;;;;;;;;;5114634;28;20293;-80
2023/04/02 00:55:21;;;;;;;15.60;6.73;;;;;;;;;;5113979;28;20196;-80
2023/04/02 00:57:49;;;;;;;15.00;6.33;;;;;;;;;;5114634;28;20193;-80
2023/04/02 01:00:20;;;;;;;12.70;6.10;;;;;;;;;;5114618;28;20284;-80
2023/04/02 01:03:03;;;;;;;13.13;6.20;;;;;;;;;;5114311;28;20278;-80
2023/04/02 01:05:34;;;;;;;14.43;6.80;;;;;;;;;;5113765;28;20315;-80
2023/04/02 01:08:07;;;;;;;15.70;6.57;;;;;;;;;;5114274;28;20327;-80
2023/04/02 01:10:41;;;;;;;17.23;6.43;;;;;;;;;;5114085;28;20232;-81
2023/04/02 01:13:14;;;;;;;15.20;6.37;;;;;;;;;;5113987;28;20221;-80
2023/04/02 01:15:43;;;;;;;10.93;5.93;;;;;;;;;;5114723;28;20208;-79
2023/04/02 01:18:30;;;;;;;13.93;6.20;;;;;;;;;;5113902;28;20280;-80
2023/04/02 01:21:15;;;;;;;11.70;5.90;;;;;;;;;;5114043;28;20565;-80
2023/04/02 01:23:51;;;;;;;13.87;6.23;;;;;;;;;;5100172;28;20217;-80
2023/04/02 01:26:24;;;;;;;17.87;6.50;;;;;;;;;;5114111;28;20315;-80
2023/04/02 01:29:00;;;;;;;14.67;6.83;;;;;;;;;;5107583;28;20713;-80
2023/04/02 01:31:29;;;;;;;13.70;6.90;;;;;;;;;;5107136;28;20244;-80
2023/04/02 01:33:56;;;;;;;11.70;6.83;;;;;;;;;;5113803;28;20231;-80
2023/04/02 01:36:28;;;;;;;12.77;6.23;;;;;;;;;;5113822;28;20197;-81
2023/04/02 01:39:01;;;;;;;14.63;6.53;;;;;;;;;;5113167;28;20266;-80
2023/04/02 01:41:31;;;;;;;15.80;6.60;;;;;;;;;;5112662;28;20194;-80
2023/04/02 01:44:03;;;;;;;15.73;6.77;;;;;;;;;;5113463;28;20645;-81
2023/04/02 01:46:31;;;;;;;14.47;6.07;;;;;;;;;;5113235;28;20320;-81
2023/04/02 01:49:01;;;;;;;10.67;5.83;;;;;;;;;;5113465;28;20713;-80
2023/04/02 01:51:29;;;;;;;16.70;6.60;;;;;;;;;;5113335;28;20281;-80
2023/04/02 01:53:59;;;;;;;12.60;6.00;;;;;;;;;;5112895;28;20231;-80
2023/04/02 01:56:27;;;;;;;14.13;6.60;;;;;;;;;;5113004;28;20749;-80
2023/04/02 01:58:54;;;;;;;14.07;6.57;;;;;;;;;;5113111;28;20236;-80
2023/04/02 02:01:23;;;;;;;13.37;5.77;;;;;;;;;;5113059;28;20288;-80
2023/04/02 02:03:51;;;;;;;12.87;6.17;;;;;;;;;;5113249;28;20284;-80
2023/04/02 02:06:19;;;;;;;12.07;6.00;;;;;;;;;;5112786;28;20316;-80
2023/04/02 02:08:48;;;;;;;18.27;6.83;;;;;;;;;;5113232;28;20233;-80
2023/04/02 02:11:16;;;;;;;10.43;6.00;;;;;;;;;;5113242;28;20297;-80
2023/04/02 02:13:46;;;;;;;9.93;5.60;;;;;;;;;;5113219;28;20647;-79
2023/04/02 02:16:17;;;;;;;12.87;6.37;;;;;;;;;;5113030;28;20214;-79
2023/04/02 02:18:47;;;;;;;10.33;5.97;;;;;;;;;;5112461;28;20597;-78
2023/04/02 02:21:16;;;;;;;13.03;5.40;;;;;;;;;;5111411;28;20237;-79
2023/04/02 02:23:44;;;;;;;11.10;5.00;;;;;;;;;;5112917;28;20248;-77
2023/04/02 02:26:12;;;;;;;12.70;5.93;;;;;;;;;;5112811;28;20587;-79
2023/04/02 02:28:40;;;;;;;11.63;5.50;;;;;;;;;;5112980;28;20803;-80
2023/04/02 02:31:11;;;;;;;12.23;5.63;;;;;;;;;;5112430;28;20258;-79
2023/04/02 02:33:41;;;;;;;13.67;5.77;;;;;;;;;;5112744;28;20277;-79
2023/04/02 02:36:14;;;;;;;12.83;5.43;;;;;;;;;;5112412;28;20255;-79
2023/04/02 02:38:45;;;;;;;11.97;5.97;;;;;;;;;;5112201;28;20637;-79
2023/04/02 02:41:16;;;;;;;11.87;5.97;;;;;;;;;;5112747;28;20272;-77
2023/04/02 02:43:46;;;;;;;9.63;6.00;;;;;;;;;;5112319;28;20243;-79
2023/04/02 02:46:17;;;;;;;14.40;6.07;;;;;;;;;;5112226;28;20910;-79
2023/04/02 02:48:45;;;;;;;12.07;6.10;;;;;;;;;;5112332;28;20234;-79
2023/04/02 02:51:18;;;;;;;10.43;5.97;;;;;;;;;;5111509;28;20189;-79
2023/04/02 02:53:47;;;;;;;10.90;5.53;;;;;;;;;;5112655;28;20242;-79
2023/04/02 02:56:14;;;;;;;11.00;5.93;;;;;;;;;;5112204;28;20225;-79
2023/04/02 02:58:41;;;;;;;9.90;5.80;;;;;;;;;;5112158;28;20243;-79
2023/04/02 03:01:08;;;;;;;9.93;5.67;;;;;;;;;;5111763;28;20253;-79
2023/04/02 03:03:36;;;;;;;13.10;6.00;;;;;;;;;;5112109;28;20224;-79
2023/04/02 03:06:05;;;;;;;9.37;6.30;;;;;;;;;;5111844;28;20290;-79
2023/04/02 03:08:36;;;;;;;12.77;6.30;;;;;;;;;;5111698;28;20298;-80
2023/04/02 03:11:05;;;;;;;12.03;6.20;;;;;;;;;;5111818;28;20566;-79
2023/04/02 03:13:34;;;;;;;10.07;6.40;;;;;;;;;;5111440;28;20211;-79
2023/04/02 03:16:04;;;;;;;11.27;6.07;;;;;;;;;;5112007;28;20224;-78
2023/04/02 03:18:38;;;;;;;11.57;6.00;;;;;;;;;;5111629;28;20205;-79
2023/04/02 03:21:11;;;;;;;11.70;6.23;;;;;;;;;;5112008;28;20238;-79
2023/04/02 03:23:41;;;;;;;10.83;6.00;;;;;;;;;;5111875;28;20280;-79
2023/04/02 03:26:10;;;;;;;10.53;5.97;;;;;;;;;;5111925;28;20257;-80
2023/04/02 03:28:41;;;;;;;9.13;5.07;;;;;;;;;;5111288;28;20288;-79
2023/04/02 03:31:10;;;;;;;9.03;5.40;;;;;;;;;;5111945;28;20217;-79
2023/04/02 03:33:40;;;;;;;8.87;5.70;;;;;;;;;;5110929;28;20292;-79
2023/04/02 03:36:13;;;;;;;10.87;5.90;;;;;;;;;;5112053;28;20248;-79
2023/04/02 03:38:44;;;;;;;11.60;6.00;;;;;;;;;;5111413;28;20213;-79
2023/04/02 03:41:14;;;;;;;9.03;5.80;;;;;;;;;;5111827;28;20200;-79
2023/04/02 03:43:43;;;;;;;11.47;5.77;;;;;;;;;;5111652;28;20198;-79
2023/04/02 03:46:15;;;;;;;11.90;6.23;;;;;;;;;;5111344;28;20320;-79
2023/04/02 03:48:45;;;;;;;13.13;6.57;;;;;;;;;;5111132;28;20264;-79
2023/04/02 03:51:15;;;;;;;9.33;5.90;;;;;;;;;;5111319;28;20833;-79
2023/04/02 03:53:44;;;;;;;10.63;6.67;;;;;;;;;;5111152;28;20289;-79
2023/04/02 03:56:12;;;;;;;10.60;6.53;;;;;;;;;;5111440;28;20289;-79
2023/04/02 03:58:41;;;;;;;11.00;6.90;;;;;;;;;;5111567;28;20292;-79
2023/04/02 04:01:16;;;;;;;11.67;6.80;;;;;;;;;;5111363;28;20217;-80
2023/04/02 04:03:45;;;;;;;12.23;6.40;;;;;;;;;;5112984;28;20197;-79
2023/04/02 04:06:14;;;;;;;11.47;6.53;;;;;;;;;;5115534;28;20221;-79
2023/04/02 04:08:45;;;;;;;10.73;6.03;;;;;;;;;;5114997;28;20236;-79
2023/04/02 04:11:15;;;;;;;9.10;6.63;;;;;;;;;;5115377;28;20197;-79
2023/04/02 04:13:46;;;;;;;9.23;6.70;;;;;;;;;;5115239;28;20228;-79
2023/04/02 04:16:15;;;;;;;11.67;7.07;;;;;;;;;;5115871;28;20201;-79
2023/04/02 04:18:45;;;;;;;11.07;6.60;;;;;;;;;;5114672;28;20193;-79
2023/04/02 04:21:16;;;;;;;11.57;6.10;;;;;;;;;;5114703;28;20205;-78
2023/04/02 04:23:49;;;;;;;10.80;6.43;;;;;;;;;;5115393;28;20222;-79
2023/04/02 04:26:19;;;;;;;11.60;6.57;;;;;;;;;;5115244;28;20283;-79
2023/04/02 04:28:57;;;;;;;11.03;6.70;;;;;;;;;;5115059;28;20198;-78
2023/04/02 04:31:29;;;;;;;11.17;6.80;;;;;;;;;;5114386;28;20189;-79
2023/04/02 04:34:03;;;;;;;13.93;6.43;;;;;;;;;;5114314;28;20293;-79
2023/04/02 04:36:33;;;;;;;9.30;6.30;;;;;;;;;;5115010;28;20198;-79
2023/04/02 04:39:06;;;;;;;10.80;6.80;;;;;;;;;;5115129;28;20240;-79
2023/04/02 04:41:36;;;;;;;10.27;7.00;;;;;;;;;;5114958;28;20202;-79
2023/04/02 04:44:06;;;;;;;11.17;6.67;;;;;;;;;;5115014;28;20236;-79
2023/04/02 04:46:36;;;;;;;10.40;6.63;;;;;;;;;;5114258;28;20264;-79
2023/04/02 04:49:08;;;;;;;12.40;6.50;;;;;;;;;;5114863;28;20239;-79
2023/04/02 04:51:38;;;;;;;11.30;7.20;;;;;;;;;;5114398;28;20280;-79
2023/04/02 04:54:06;;;;;;;13.87;7.07;;;;;;;;;;5114674;28;20284;-79
2023/04/02 04:56:33;;;;;;;14.17;7.00;;;;;;;;;;5114262;28;20229;-79
2023/04/02 04:59:02;;;;;;;12.57;6.83;;;;;;;;;;5114211;28;20206;-78
2023/04/02 05:01:34;;;;;;;12.53;6.93;;;;;;;;;;5113988;28;20228;-79
2023/04/02 05:04:04;;;;;;;14.63;6.97;;;;;;;;;;5114289;28;20288;-78
2023/04/02 05:06:36;;;;;;;10.57;6.63;;;;;;;;;;5114441;28;20311;-79
2023/04/02 05:09:06;;;;;;;12.17;6.30;;;;;;;;;;5114725;28;20280;-79
2023/04/02 05:11:37;;;;;;;11.80;6.90;;;;;;;;;;5095940;28;20727;-79
2023/04/02 05:14:07;;;;;;;16.40;6.83;;;;;;;;;;5114005;28;20288;-79
2023/04/02 05:16:38;;;;;;;12.73;6.13;;;;;;;;;;5113762;28;20224;-79
2023/04/02 05:19:08;;;;;;;11.23;6.03;;;;;;;;;;5114515;28;20616;-79
2023/04/02 05:21:38;;;;;;;10.13;5.70;;;;;;;;;;5114452;28;20226;-79
2023/04/02 05:24:08;;;;;;;9.40;6.20;;;;;;;;;;5114394;28;20221;-79
2023/04/02 05:26:40;;;;;;;9.07;5.97;;;;;;;;;;5113593;28;20307;-78
2023/04/02 05:29:09;;;;;;;11.30;5.93;;;;;;;;;;5114435;28;20201;-77
2023/04/02 05:31:38;;;;;;;8.83;5.67;;;;;;;;;;5114320;28;20277;-78
2023/04/02 05:34:06;;;;;;;9.30;5.73;;;;;;;;;;5113639;28;20285;-78
2023/04/02 05:36:33;;;;;;;9.93;6.20;;;;;;;;;;5113975;28;20227;-79
2023/04/02 05:39:00;;;;;;;9.43;5.80;;;;;;;;;;5113518;28;20284;-78
2023/04/02 05:41:31;;;;;;;8.87;5.40;;;;;;;;;;5113855;28;20233;-79
2023/04/02 05:44:04;;;;;;;8.33;5.70;;;;;;;;;;5113322;28;20853;-79
2023/04/02 05:46:34;;;;;;;9.47;5.43;;;;;;;;;;5113475;28;20225;-79
2023/04/02 05:49:01;;;;;;;8.33;5.67;;;;;;;;;;5113430;28;20232;-79
2023/04/02 05:51:31;;;;;;;10.33;5.20;;;;;;;;;;5113395;28;20221;-79
2023/04/02 05:54:00;;;;;;;11.07;5.43;;;;;;;;;;5113399;28;20277;-79
2023/04/02 05:56:31;;;;;;;7.57;5.10;;;;;;;;;;5113453;28;20662;-79
2023/04/02 05:59:01;;;;;;;9.93;5.43;;;;;;;;;;5113467;28;20232;-79
2023/04/02 06:01:39;;;;;;;8.00;5.13;;;;;;;;;;5113196;28;20232;-79
2023/04/02 06:04:12;;;;;;;6.83;5.27;;;;;;;;;;5112755;28;20292;-79
2023/04/02 06:06:51;;;;;;;8.10;5.63;;;;;;;;;;5112893;28;20357;-78
2023/04/02 06:09:20;;;;;;;6.50;4.83;;;;;;;;;;5113048;28;20274;-79
2023/04/02 06:11:50;;;;;;;6.60;5.20;;;;;;;;;;5113151;28;20341;-78
2023/04/02 06:14:17;;;;;;;7.27;5.20;;;;;;;;;;5112863;28;20225;-78
2023/04/02 06:16:46;;;;;;;7.00;4.93;;;;;;;;;;5112731;28;20292;-77
2023/04/02 06:19:16;;;;;;;9.47;5.40;;;;;;;;;;5112686;28;20239;-79
2023/04/02 06:21:44;;;;;;;7.73;5.30;;;;;;;;;;5112708;28;20291;-78
2023/04/02 06:24:14;;;;;;;6.53;5.20;;;;;;;;;;5112491;28;20190;-79
2023/04/02 06:26:43;;;;;;;7.40;5.10;;;;;;;;;;5094056;28;20302;-79
2023/04/02 06:29:13;;;;;;;6.70;5.30;;;;;;;;;;5112290;28;20232;-78
2023/04/02 06:31:43;;;;;;;9.67;5.30;;;;;;;;;;5112586;28;20197;-78
2023/04/02 06:34:16;;;;;;;7.13;5.30;;;;;;;;;;5112497;28;20220;-79
2023/04/02 06:36:43;;;;;;;7.13;5.50;;;;;;;;;;5112428;28;20223;-79
2023/04/02 06:39:16;;;;;;;8.50;5.03;;;;;;;;;;5112179;28;20285;-79
2023/04/02 06:41:43;;;;;;;7.20;4.83;;;;;;;;;;5112651;28;20296;-79
2023/04/02 06:44:12;;;;;;;6.33;4.67;;;;;;;;;;5112447;28;20239;-79
2023/04/02 06:46:42;;;;;;;7.57;5.20;;;;;;;;;;5112197;28;20224;-79
2023/04/02 06:49:15;;;;;;;8.60;5.40;;;;;;;;;;5112330;28;20295;-79
2023/04/02 06:51:43;;;;;;;7.97;5.33;;;;;;;;;;5112191;28;20287;-79
2023/04/02 06:54:13;;;;;;;7.43;5.00;;;;;;;;;;5112037;28;20297;-78
2023/04/02 06:56:42;;;;;;;6.87;5.17;;;;;;;;;;5112016;28;20217;-78
2023/04/02 06:59:11;;;;;;;7.47;4.93;;;;;;;;;;5112680;28;20631;-79
2023/04/02 07:01:42;;;;;;;9.27;5.10;;;;;;;;;;5112380;28;20288;-79
2023/04/02 07:04:10;;;;;;;6.63;5.03;;;;;;;;;;5112060;28;20198;-78
2023/04/02 07:06:38;;;;;;;8.37;5.03;;;;;;;;;;5111782;28;20652;-78
2023/04/02 07:09:06;;;;;;;8.70;5.20;;;;;;;;;;5112322;28;20285;-79
2023/04/02 07:11:33;;;;;;;5.83;4.47;;;;;;;;;;5111257;28;20201;-79
2023/04/02 07:14:00;;;;;;;6.10;4.90;;;;;;;;;;5111859;28;20236;-78
2023/04/02 07:16:30;;;;;;;7.50;4.97;;;;;;;;;;5111665;28;20232;-79
2023/04/02 07:18:58;;;;;;;7.07;4.73;;;;;;;;;;5111841;28;20225;-78
2023/04/02 07:21:26;;;;;;;6.67;4.77;;;;;;;;;;5111539;28;20675;-78
2023/04/02 07:23:54;;;;;;;7.13;4.73;;;;;;;;;;5111596;28;20186;-78
2023/04/02 07:26:24;;;;;;;7.53;4.80;;;;;;;;;;5111298;28;20216;-78
2023/04/02 07:28:51;;;;;;;6.37;4.73;;;;;;;;;;5111681;28;20236;-77
2023/04/02 07:31:20;;;;;;;7.63;6.33;;;;;;;;;;5111549;28;20666;-80
2023/04/02 07:33:47;;;;;;;10.67;8.57;;;;;;;;;;5111718;28;20635;-80
2023/04/02 07:36:15;;;;;;;13.13;10.93;;;;;;;;;;5111302;28;20280;-80
2023/04/02 07:38:42;;;;;;;11.17;10.07;;;;;;;;;;5111079;28;20678;-80
2023/04/02 07:41:11;;;;;;;11.00;9.93;;;;;;;;;;5111351;28;20225;-79
2023/04/02 07:43:38;;;;;;;10.30;8.93;;;;;;;;;;5111629;28;20288;-80
2023/04/02 07:46:06;;;;;;;6.27;5.30;;;;;;;;;;5111674;28;20277;-79
2023/04/02 07:48:33;;;;;;;7.23;5.90;;;;;;;;;;5111347;28;20319;-80
2023/04/02 07:51:02;;;;;;;7.17;5.50;;;;;;;;;;5110097;28;20285;-80
2023/04/02 07:53:30;;;;;;;7.77;6.13;;;;;;;;;;5110779;28;20620;-80
2023/04/02 07:55:58;;;;;;;9.10;6.80;;;;;;;;;;5111115;28;20640;-81
2023/04/02 07:58:26;;;;;;;7.07;6.10;;;;;;;;;;5110721;28;20305;-79
2023/04/02 08:00:54;;;;;;;9.63;8.63;;;;;;;;;;5108057;28;20189;-81
2023/04/02 08:03:21;;;;;;;10.23;8.30;;;;;;;;;;5101712;28;20225;-80
2023/04/02 08:05:52;;;;;;;10.13;9.17;;;;;;;;;;5092794;28;20202;-80
2023/04/02 08:08:19;;;;;;;11.87;10.77;;;;;;;;;;5090371;28;20961;-81
2023/04/02 08:10:47;;;;;;;18.80;17.10;;;;;;;;;;5090310;28;20255;-81
2023/04/02 08:13:14;;;;;;;23.13;20.93;;;;;;;;;;5100093;28;20300;-79
2023/04/02 08:15:43;;;;;;;11.17;8.77;;;;;;;;;;5111175;28;20209;-80
2023/04/02 08:18:10;;;;;;;12.17;10.93;;;;;;;;;;5110825;28;20202;-80
2023/04/02 08:20:38;;;;;;;7.37;5.80;;;;;;;;;;5109515;28;20229;-80
2023/04/02 08:23:06;;;;;;;7.97;6.70;;;;;;;;;;5108146;28;20197;-80
2023/04/02 08:25:33;;;;;;;8.50;7.43;;;;;;;;;;5111218;28;20227;-80
2023/04/02 08:28:01;;;;;;;10.57;9.00;;;;;;;;;;5111189;28;20294;-80
2023/04/02 08:30:28;;;;;;;10.00;8.87;;;;;;;;;;5111251;28;20205;-81
2023/04/02 08:32:57;;;;;;;8.53;7.70;;;;;;;;;;5110460;28;20282;-80
2023/04/02 08:35:25;;;;;;;8.70;7.80;;;;;;;;;;5108216;28;20292;-78
2023/04/02 08:37:53;;;;;;;10.90;7.07;;;;;;;;;;5111927;27;20571;-78
2023/04/02 08:40:23;;;;;;;27.27;23.40;;;;;;;;;;5117683;28;20217;-79
2023/04/02 08:42:58;;;;;;;20.53;18.60;;;;;;;;;;5106950;28;20190;-79
2023/04/02 08:45:32;;;;;;;14.63;13.33;;;;;;;;;;5110615;28;20221;-80
2023/04/02 08:48:02;;;;;;;6.77;5.00;;;;;;;;;;5110421;28;20346;-80
2023/04/02 08:50:31;;;;;;;5.10;4.23;;;;;;;;;;5113703;28;20193;-80
2023/04/02 08:52:59;;;;;;;5.63;4.53;;;;;;;;;;5114452;28;20290;-79
2023/04/02 08:55:32;;;;;;;4.33;3.17;;;;;;;;;;5112842;28;20227;-79
2023/04/02 08:58:03;;;;;;;4.27;3.50;;;;;;;;;;5113987;28;20716;-77
2023/04/02 09:00:33;;;;;;;4.17;3.10;;;;;;;;;;5113753;28;20221;-77
2023/04/02 09:03:05;;;;;;;4.10;2.87;;;;;;;;;;5112877;28;20700;-79
2023/04/02 09:05:34;;;;;;;3.87;2.80;;;;;;;;;;5110434;28;20204;-78
2023/04/02 09:08:03;;;;;;;4.03;2.67;;;;;;;;;;5111474;28;20329;-80
2023/04/02 09:10:36;;;;;;;2.40;2.20;;;;;;;;;;5114012;28;20836;-78
2023/04/02 09:13:03;;;;;;;3.20;2.70;;;;;;;;;;5117411;27;20226;-79
2023/04/02 09:15:34;;;;;;;4.17;2.60;;;;;;;;;;5113619;28;20276;-78
2023/04/02 09:18:07;;;;;;;3.00;2.57;;;;;;;;;;5113657;28;20198;-79
2023/04/02 09:20:35;;;;;;;4.10;2.30;;;;;;;;;;5108123;28;20241;-77
2023/04/02 09:23:02;;;;;;;6.90;2.50;;;;;;;;;;5108750;28;20228;-78
2023/04/02 09:25:31;;;;;;;4.27;2.57;;;;;;;;;;5108283;28;20304;-78
2023/04/02 09:28:02;;;;;;;3.93;2.20;;;;;;;;;;5112853;27;20768;-78
2023/04/02 09:30:39;;;;;;;3.07;2.07;;;;;;;;;;5110751;28;20263;-79
2023/04/02 09:33:08;;;;;;;4.30;2.60;;;;;;;;;;5111865;28;20637;-79
2023/04/02 09:35:36;;;;;;;5.10;2.93;;;;;;;;;;5114647;27;20201;-80
2023/04/02 09:38:18;;;;;;;3.07;2.10;;;;;;;;;;5104202;28;20750;-81
2023/04/02 09:40:48;;;;;;;5.77;2.40;;;;;;;;;;5098789;28;20195;-79
2023/04/02 09:43:16;;;;;;;7.60;3.00;;;;;;;;;;5106413;27;20678;-77
2023/04/02 09:45:44;;;;;;;5.63;2.87;;;;;;;;;;5102173;28;20604;-80
2023/04/02 09:48:25;;;;;;;14.93;3.00;;;;;;;;;;5119110;27;20233;-78
2023/04/02 09:51:03;;;;;;;3.37;2.10;;;;;;;;;;5133180;27;20201;-79
2023/04/02 09:53:32;;;;;;;3.37;2.27;;;;;;;;;;5133735;27;20600;-78
2023/04/02 09:56:09;;;;;;;4.67;2.50;;;;;;;;;;5134120;27;20250;-78
2023/04/02 09:58:36;;;;;;;8.17;2.83;;;;;;;;;;5133938;27;20275;-79
2023/04/02 10:01:03;;;;;;;5.50;3.40;;;;;;;;;;5132969;27;20287;-78
2023/04/02 10:03:33;;;;;;;11.60;2.50;;;;;;;;;;5133611;27;20228;-78
2023/04/02 10:06:05;;;;;;;5.10;3.00;;;;;;;;;;5133109;27;20320;-78
2023/04/02 10:08:32;;;;;;;5.40;2.53;;;;;;;;;;5133644;27;20319;-79
2023/04/02 10:11:01;;;;;;;7.70;2.80;;;;;;;;;;5133996;27;20201;-79
2023/04/02 10:13:29;;;;;;;10.03;2.77;;;;;;;;;;5122594;27;20233;-79
2023/04/02 10:15:59;;;;;;;8.73;2.70;;;;;;;;;;5113098;28;20217;-79
2023/04/02 10:18:33;;;;;;;4.10;2.30;;;;;;;;;;5113197;28;20194;-79
2023/04/02 10:21:03;;;;;;;3.57;2.03;;;;;;;;;;5113315;28;20190;-79
2023/04/02 10:23:31;;;;;;;9.77;3.43;;;;;;;;;;5113355;28;20224;-79
2023/04/02 10:26:04;;;;;;;12.87;2.80;;;;;;;;;;5113173;28;20221;-79
2023/04/02 10:28:42;;;;;;;8.90;2.47;;;;;;;;;;5112621;28;20312;-78
2023/04/02 10:31:16;;;;;;;5.30;2.13;;;;;;;;;;5112575;28;20576;-79
2023/04/02 10:33:48;;;;;;;7.73;2.87;;;;;;;;;;5112577;28;20681;-79
2023/04/02 10:36:22;;;;;;;6.20;3.40;;;;;;;;;;5112733;28;20198;-79
2023/04/02 10:38:51;;;;;;;3.87;2.90;;;;;;;;;;5112470;28;20628;-79
2023/04/02 10:41:31;;;;;;;9.57;2.80;;;;;;;;;;5112837;28;20217;-79
2023/04/02 10:44:32;;;;;;;8.67;2.70;;;;;;;;;;5113051;28;20214;-79
2023/04/02 10:47:05;;;;;;;7.80;2.60;;;;;;;;;;5029317;28;20231;-79
2023/04/02 10:49:36;;;;;;;3.93;1.90;;;;;;;;;;5028852;28;20589;-79
2023/04/02 10:52:08;;;;;;;3.73;1.77;;;;;;;;;;5029801;28;20196;-79
2023/04/02 10:54:41;;;;;;;3.30;1.90;;;;;;;;;;5029494;28;20279;-79
2023/04/02 10:57:12;;;;;;;7.17;2.23;;;;;;;;;;5029480;28;20235;-79
2023/04/02 10:59:40;;;;;;;3.73;1.70;;;;;;;;;;5029410;28;20196;-79
2023/04/02 11:02:17;;;;;;;3.37;1.87;;;;;;;;;;5029415;28;20291;-79
2023/04/02 11:04:45;;;;;;;4.37;1.90;;;;;;;;;;5029018;28;20613;-79
2023/04/02 11:07:16;;;;;;;3.80;2.07;;;;;;;;;;5029186;28;20291;-79
2023/04/02 11:09:46;;;;;;;2.30;1.77;;;;;;;;;;5029694;28;20266;-79
2023/04/02 11:12:18;;;;;;;2.07;1.50;;;;;;;;;;5028984;28;20267;-79
2023/04/02 11:14:46;;;;;;;2.10;1.47;;;;;;;;;;5029370;28;20246;-80
2023/04/02 11:17:15;;;;;;;3.57;2.47;;;;;;;;;;5046316;28;20194;-79
2023/04/02 11:19:43;;;;;;;2.37;2.00;;;;;;;;;;5112541;28;20197;-80
2023/04/02 11:22:16;;;;;;;2.67;1.90;;;;;;;;;;5111972;28;20255;-79
2023/04/02 11:24:44;;;;;;;3.63;2.07;;;;;;;;;;5111732;28;20676;-79
2023/04/02 11:27:26;;;;;;;2.73;1.40;;;;;;;;;;5112246;28;20197;-80
2023/04/02 11:29:54;;;;;;;2.83;1.47;;;;;;;;;;5111947;28;20271;-80
2023/04/02 11:32:29;;;;;;;3.90;1.30;;;;;;;;;;5111714;28;20198;-79
2023/04/02 11:35:20;;;;;;;2.57;1.27;;;;;;;;;;5111973;28;20620;-80
2023/04/02 11:37:48;;;;;;;2.00;1.40;;;;;;;;;;5111789;28;20616;-79
2023/04/02 11:40:34;;;;;;;1.50;1.40;;;;;;;;;;5111950;28;20222;-79
2023/04/02 11:43:27;;;;;;;3.00;1.57;;;;;;;;;;5111888;28;20194;-78
2023/04/02 11:45:57;;;;;;;1.90;1.40;;;;;;;;;;5111733;28;20292;-80
2023/04/02 11:48:28;;;;;;;2.50;1.60;;;;;;;;;;5110853;28;20605;-81
2023/04/02 11:50:55;;;;;;;3.57;1.70;;;;;;;;;;5112157;28;20233;-80
2023/04/02 11:53:27;;;;;;;1.97;1.70;;;;;;;;;;5112179;28;20242;-79
2023/04/02 11:56:08;;;;;;;1.77;1.60;;;;;;;;;;5111674;28;20201;-80
2023/04/02 11:58:42;;;;;;;3.90;3.50;;;;;;;;;;5111811;28;20287;-80
2023/04/02 12:01:22;;;;;;;4.70;3.27;;;;;;;;;;5111370;28;20224;-79
2023/04/02 12:03:56;;;;;;;3.40;2.70;;;;;;;;;;5111110;28;20224;-79
2023/04/02 12:06:28;;;;;;;2.43;2.07;;;;;;;;;;5111470;28;20295;-80
2023/04/02 12:09:04;;;;;;;1.83;1.30;;;;;;;;;;5111566;28;20304;-80
2023/04/02 12:11:32;;;;;;;1.40;1.00;;;;;;;;;;5111517;28;20225;-80
2023/04/02 12:13:59;;;;;;;1.60;1.30;;;;;;;;;;5111296;28;20676;-78
2023/04/02 12:16:31;;;;;;;1.57;1.13;;;;;;;;;;5111729;28;20209;-80
2023/04/02 12:19:00;;;;;;;2.00;1.30;;;;;;;;;;5111622;28;20239;-79
2023/04/02 12:21:28;;;;;;;2.67;1.30;;;;;;;;;;5111406;28;20201;-79
2023/04/02 12:23:56;;;;;;;1.80;1.43;;;;;;;;;;5111917;28;20218;-80
2023/04/02 12:26:36;;;;;;;1.67;1.43;;;;;;;;;;5115268;28;21054;-79
2023/04/02 12:29:22;;;;;;;2.30;1.60;;;;;;;;;;5115554;28;20782;-79
2023/04/02 12:31:50;;;;;;;1.97;1.60;;;;;;;;;;5114916;28;20190;-79
2023/04/02 12:34:18;;;;;;;1.70;1.60;;;;;;;;;;5115288;28;20224;-79
2023/04/02 12:36:53;;;;;;;1.70;1.60;;;;;;;;;;5115462;28;20229;-80
2023/04/02 12:39:20;;;;;;;3.47;1.90;;;;;;;;;;5114964;28;20225;-79
2023/04/02 12:41:47;;;;;;;4.03;2.23;;;;;;;;;;5114597;28;20285;-79
2023/04/02 12:44:16;;;;;;;2.13;1.93;;;;;;;;;;5114927;28;20289;-79
2023/04/02 12:46:44;;;;;;;2.90;2.10;;;;;;;;;;5114809;28;20506;-79
2023/04/02 12:49:21;;;;;;;2.57;1.87;;;;;;;;;;5115002;28;20713;-79
2023/04/02 12:51:48;;;;;;;3.13;1.80;;;;;;;;;;5114847;28;20291;-78
2023/04/02 12:54:17;;;;;;;2.33;1.87;;;;;;;;;;5114827;28;20217;-79
2023/04/02 12:56:44;;;;;;;3.17;2.40;;;;;;;;;;5115340;28;20216;-79
2023/04/02 12:59:25;;;;;;;2.63;1.70;;;;;;;;;;5114200;28;20268;-79
2023/04/02 13:01:56;;;;;;;1.60;1.50;;;;;;;;;;5115133;28;20285;-78
2023/04/02 13:04:24;;;;;;;2.47;1.70;;;;;;;;;;5114768;28;20676;-79
2023/04/02 13:06:53;;;;;;;2.00;1.70;;;;;;;;;;5114317;28;20289;-79
2023/04/02 13:09:28;;;;;;;2.70;1.50;;;;;;;;;;5114419;28;20290;-79
2023/04/02 13:11:56;;;;;;;2.93;1.83;;;;;;;;;;5114192;28;20217;-79
2023/04/02 13:14:25;;;;;;;2.23;1.93;;;;;;;;;;5114288;28;20229;-79
2023/04/02 13:16:52;;;;;;;2.37;1.80;;;;;;;;;;5114604;28;20197;-77
2023/04/02 13:19:28;;;;;;;2.30;2.00;;;;;;;;;;5113953;28;20301;-79
2023/04/02 13:21:57;;;;;;;3.37;1.90;;;;;;;;;;5114380;28;20185;-78
2023/04/02 13:24:25;;;;;;;3.70;1.90;;;;;;;;;;5114454;28;20274;-79
2023/04/02 13:26:54;;;;;;;2.60;1.63;;;;;;;;;;5114291;28;20229;-79
2023/04/02 13:29:26;;;;;;;2.77;1.97;;;;;;;;;;5113717;28;20320;-78
2023/04/02 13:31:53;;;;;;;2.77;1.90;;;;;;;;;;5114280;28;20224;-78
2023/04/02 13:34:21;;;;;;;3.27;2.23;;;;;;;;;;5114923;28;20285;-78
2023/04/02 13:36:49;;;;;;;2.20;2.00;;;;;;;;;;5113441;28;20670;-78
2023/04/02 13:39:18;;;;;;;4.17;2.10;;;;;;;;;;5114088;28;20213;-78
2023/04/02 13:41:46;;;;;;;2.63;2.20;;;;;;;;;;5114293;28;20204;-78
2023/04/02 13:44:18;;;;;;;2.97;2.00;;;;;;;;;;5113809;28;20284;-78
2023/04/02 13:46:45;;;;;;;6.60;5.50;;;;;;;;;;5113487;28;20230;-78
2023/04/02 13:49:12;;;;;;;4.73;4.17;;;;;;;;;;5113198;28;20320;-78
2023/04/02 13:51:40;;;;;;;4.67;3.60;;;;;;;;;;5114162;28;20629;-78
2023/04/02 13:54:12;;;;;;;5.43;3.27;;;;;;;;;;5113252;28;20277;-79
2023/04/02 13:56:40;;;;;;;4.83;4.17;;;;;;;;;;5113590;28;20331;-78
2023/04/02 13:59:07;;;;;;;3.93;2.53;;;;;;;;;;5113614;28;20666;-77
2023/04/02 14:01:34;;;;;;;6.20;3.53;;;;;;;;;;5113785;28;20213;-78
2023/04/02 14:04:02;;;;;;;2.87;2.00;;;;;;;;;;5114034;28;20230;-79
2023/04/02 14:06:33;;;;;;;4.60;3.97;;;;;;;;;;5113220;28;20658;-78
2023/04/02 14:09:03;;;;;;;4.03;3.40;;;;;;;;;;5113416;28;20277;-79
2023/04/02 14:11:37;;;;;;;2.43;2.23;;;;;;;;;;5112841;28;20685;-78
2023/04/02 14:14:15;;;;;;;1.90;1.80;;;;;;;;;;5113007;28;20293;-78
2023/04/02 14:16:48;;;;;;;4.03;2.40;;;;;;;;;;5113061;28;20217;-79
2023/04/02 14:19:23;;;;;;;3.73;2.73;;;;;;;;;;5113253;28;20232;-79
2023/04/02 14:21:56;;;;;;;6.47;3.27;;;;;;;;;;5113012;28;20240;-79
2023/04/02 14:24:29;;;;;;;5.20;4.80;;;;;;;;;;5113329;28;20202;-78
2023/04/02 14:27:04;;;;;;;2.40;2.20;;;;;;;;;;5113150;28;20571;-79
2023/04/02 14:29:33;;;;;;;3.23;2.57;;;;;;;;;;5112555;28;20359;-79
2023/04/02 14:32:05;;;;;;;4.40;4.00;;;;;;;;;;5112422;28;20243;-79
2023/04/02 14:34:34;;;;;;;2.83;2.10;;;;;;;;;;5113000;28;20225;-79
2023/04/02 14:37:08;;;;;;;3.47;2.10;;;;;;;;;;5112807;28;20190;-78
2023/04/02 14:39:39;;;;;;;3.77;2.20;;;;;;;;;;5112752;28;20204;-78
2023/04/02 14:42:12;;;;;;;3.20;2.47;;;;;;;;;;5112565;28;20202;-79
2023/04/02 14:44:42;;;;;;;4.10;2.60;;;;;;;;;;5112726;28;20204;-79
2023/04/02 14:47:13;;;;;;;4.57;3.07;;;;;;;;;;5111723;28;20261;-79
2023/04/02 14:49:43;;;;;;;5.03;2.87;;;;;;;;;;5113118;28;20257;-79
2023/04/02 14:52:12;;;;;;;4.20;2.87;;;;;;;;;;5112404;28;20287;-79
2023/04/02 14:54:41;;;;;;;5.43;3.83;;;;;;;;;;5111709;28;20198;-79
2023/04/02 14:57:15;;;;;;;4.60;3.17;;;;;;;;;;5112311;28;20655;-79
2023/04/02 14:59:47;;;;;;;6.17;4.33;;;;;;;;;;5112412;28;20284;-79